MHLC/LCE METAR and TAF weather

Enter ICAO airport designator
Station Type Date Time Source
MHLC METAR 2019/04/18 15:00 UTC NOAA

MHLC 181500Z 34002KT 9999 FEW028 SCT250 30/24 Q1010 A2983 NOSIG


Station Type Date Time Source
MHLC Decoded METAR 2019/04/18 15:00 UTC NOAA

La Ceiba Airport , Honduras (MHLC) 15-44N 086-52W 26M
Apr 18, 2019 - 11:00 AM EDT / 2019.04.18 1500 UTC
Wind: from the NNW (340 degrees) at 2 MPH (2 KT):0
Visibility: greater than 7 mile(s):0
Sky conditions: partly cloudy
Temperature: 86 F (30 C)
Heat index: 95.0 F (35.0 C):1
Dew Point: 75 F (24 C)
Relative Humidity: 70%
Pressure (altimeter): 29.83 in. Hg (1010 hPa)
ob: MHLC 181500Z 34002KT 9999 FEW028 SCT250 30/24 Q1010 A2983 NOSIG
cycle: 15

Station Type Date Time Source
MHLC TAF 2019/04/18 12:32 UTC NOAA

TAF MHLC 181025Z 1812/1912 21006KT 9999 FEW028 TX33/1821Z TN23/1912Z
BECMG 1816/1818 03012KT 9999 SCT028TCU SCT080
BECMG 1901/1903 VRB02KT SCT024 SCT070
BECMG 1905/1907 24003KT

Example: see airport list